PAHN

Details ICAO PAHN (HNS)
Name HAINES
Region USA (Alaska)
Timezone Unknown (UTC+0.0)
Plans Departing 11
Arriving 16
Stats Elevation 15 ft / 5 m (AMSL)
Location 59.243829° -135.523538°
Runways 1
Magnetic Variation 19.138° E
Sunrise 2018-05-22 12:16:01 UTC / 2018-05-22 12:16:01 Local
Sunset 2018-05-23 05:44:26 UTC / 2018-05-23 05:44:26 Local
Advertisement - Login to hide

Runways

ID Width Length Bearing (true) Bearing (mag) Surface Threshold Offset Overrun Length
08 100 ft / 30 m 3,988 ft / 1,216 m 110.17° 91.03° Asphalt 0 ft / 0 m 300 ft / 91 m
26 100 ft / 30 m 3,988 ft / 1,216 m 290.19° 271.05° Asphalt 1,000 ft / 305 m 300 ft / 91 m

Map

Weather


0- 5 10 15 20 25 30 35+ Temperature / ° C

Clouds and Precipitation
Forecast for 2018-05-23 00:00 UTC. Updated an hour ago

Ground ~20,000 ft ~40,000 ft Winds

METAR

PAHN 222354Z AUTO 10010G19KT 10SM -RA OVC065 11/08 A2986 RMK AO2 RAB52 SLP114 P0000 60005 T01060078 10122 20094 51012 TSNO

TAF

TAF AMD PAHN 230001Z 2300/2324 11008KT P6SM VCSH SCT015 OVC050 TEMPO 2300/2304 10010G18KT -SHRA BKN015 OVC040 FM230600 09005KT P6SM VCSH BKN015 OVC070 FM231300 VRB05KT P6SM BKN020 OVC070 FM231500 13008KT P6SM SCT020 BKN070 AMD LTD TO CLD VIS AND WIND

Frequencies

Recorded 135.75 MHz ASOS
Unicom 122.90 MHz CTAF
Warning: Do not use this data for real-world aviation or navigation. No guarantee of current accuracy is given.